sensor_id;sensor_type;location;lat;lon;timestamp;P1;durP1;ratioP1;P2;durP2;ratioP2
71806;SDS011;59655;42.590;23.364;2023-01-29T00:00:11;14.15;;;6.78;;
71806;SDS011;59655;42.590;23.364;2023-01-29T00:02:37;16.33;;;7.88;;
71806;SDS011;59655;42.590;23.364;2023-01-29T00:05:03;13.93;;;7.28;;
71806;SDS011;59655;42.590;23.364;2023-01-29T00:07:30;15.32;;;7.40;;
71806;SDS011;59655;42.590;23.364;2023-01-29T00:09:56;13.82;;;6.82;;
71806;SDS011;59655;42.590;23.364;2023-01-29T00:12:21;14.82;;;7.55;;
71806;SDS011;59655;42.590;23.364;2023-01-29T00:14:46;13.98;;;7.63;;
71806;SDS011;59655;42.590;23.364;2023-01-29T00:17:12;14.63;;;8.15;;
71806;SDS011;59655;42.590;23.364;2023-01-29T00:19:38;16.52;;;7.57;;
71806;SDS011;59655;42.590;23.364;2023-01-29T00:22:04;23.55;;;13.35;;
71806;SDS011;59655;42.590;23.364;2023-01-29T00:24:29;19.35;;;9.88;;
71806;SDS011;59655;42.590;23.364;2023-01-29T00:26:55;15.57;;;8.13;;
71806;SDS011;59655;42.590;23.364;2023-01-29T00:29:20;11.90;;;6.00;;
71806;SDS011;59655;42.590;23.364;2023-01-29T00:31:46;11.27;;;5.78;;
71806;SDS011;59655;42.590;23.364;2023-01-29T00:34:11;13.20;;;6.47;;
71806;SDS011;59655;42.590;23.364;2023-01-29T00:36:37;11.13;;;5.57;;
71806;SDS011;59655;42.590;23.364;2023-01-29T00:39:02;13.32;;;6.00;;
71806;SDS011;59655;42.590;23.364;2023-01-29T00:41:34;12.75;;;6.38;;
71806;SDS011;59655;42.590;23.364;2023-01-29T00:44:19;11.25;;;5.80;;
71806;SDS011;59655;42.590;23.364;2023-01-29T00:47:04;11.45;;;5.45;;
71806;SDS011;59655;42.590;23.364;2023-01-29T00:49:48;12.73;;;5.88;;
71806;SDS011;59655;42.590;23.364;2023-01-29T00:52:14;13.65;;;5.95;;
71806;SDS011;59655;42.590;23.364;2023-01-29T00:54:48;11.35;;;5.75;;
71806;SDS011;59655;42.590;23.364;2023-01-29T00:57:14;10.93;;;5.50;;
71806;SDS011;59655;42.590;23.364;2023-01-29T00:59:39;11.35;;;5.55;;
71806;SDS011;59655;42.590;23.364;2023-01-29T01:02:04;12.20;;;5.97;;
71806;SDS011;59655;42.590;23.364;2023-01-29T01:04:48;11.65;;;6.05;;
71806;SDS011;59655;42.590;23.364;2023-01-29T01:07:14;11.25;;;5.50;;
71806;SDS011;59655;42.590;23.364;2023-01-29T01:09:39;11.00;;;5.28;;
71806;SDS011;59655;42.590;23.364;2023-01-29T01:12:24;11.40;;;6.18;;
71806;SDS011;59655;42.590;23.364;2023-01-29T01:14:49;13.02;;;5.22;;
71806;SDS011;59655;42.590;23.364;2023-01-29T01:17:15;11.35;;;5.47;;
71806;SDS011;59655;42.590;23.364;2023-01-29T01:19:40;11.60;;;5.55;;
71806;SDS011;59655;42.590;23.364;2023-01-29T01:22:06;12.30;;;5.93;;
71806;SDS011;59655;42.590;23.364;2023-01-29T01:24:31;13.70;;;5.97;;
71806;SDS011;59655;42.590;23.364;2023-01-29T01:26:57;11.43;;;5.18;;
71806;SDS011;59655;42.590;23.364;2023-01-29T01:29:22;11.35;;;5.50;;
71806;SDS011;59655;42.590;23.364;2023-01-29T01:31:48;10.10;;;5.38;;
71806;SDS011;59655;42.590;23.364;2023-01-29T01:34:14;11.88;;;5.43;;
71806;SDS011;59655;42.590;23.364;2023-01-29T01:36:39;12.45;;;5.65;;
71806;SDS011;59655;42.590;23.364;2023-01-29T01:39:05;12.63;;;6.53;;
71806;SDS011;59655;42.590;23.364;2023-01-29T01:41:30;13.02;;;5.18;;
71806;SDS011;59655;42.590;23.364;2023-01-29T01:44:00;10.45;;;5.05;;
71806;SDS011;59655;42.590;23.364;2023-01-29T01:46:27;9.70;;;5.32;;
71806;SDS011;59655;42.590;23.364;2023-01-29T01:48:55;12.63;;;5.75;;
71806;SDS011;59655;42.590;23.364;2023-01-29T01:51:31;12.25;;;5.70;;
71806;SDS011;59655;42.590;23.364;2023-01-29T01:54:05;10.52;;;5.10;;
71806;SDS011;59655;42.590;23.364;2023-01-29T01:56:33;11.25;;;5.50;;
71806;SDS011;59655;42.590;23.364;2023-01-29T01:59:15;11.23;;;5.03;;
71806;SDS011;59655;42.590;23.364;2023-01-29T02:01:44;12.40;;;5.55;;
71806;SDS011;59655;42.590;23.364;2023-01-29T02:04:18;11.73;;;5.82;;
71806;SDS011;59655;42.590;23.364;2023-01-29T02:07:05;11.00;;;5.25;;
71806;SDS011;59655;42.590;23.364;2023-01-29T02:09:52;10.80;;;4.70;;
71806;SDS011;59655;42.590;23.364;2023-01-29T02:12:40;10.52;;;5.13;;
71806;SDS011;59655;42.590;23.364;2023-01-29T02:15:07;10.55;;;5.20;;
71806;SDS011;59655;42.590;23.364;2023-01-29T02:17:33;10.98;;;5.03;;
71806;SDS011;59655;42.590;23.364;2023-01-29T02:20:11;10.45;;;4.63;;
71806;SDS011;59655;42.590;23.364;2023-01-29T02:36:11;9.50;;;4.53;;
71806;SDS011;59655;42.590;23.364;2023-01-29T02:38:59;9.38;;;4.60;;
71806;SDS011;59655;42.590;23.364;2023-01-29T02:41:38;10.20;;;4.43;;
71806;SDS011;59655;42.590;23.364;2023-01-29T02:44:22;10.02;;;4.68;;
71806;SDS011;59655;42.590;23.364;2023-01-29T02:57:52;10.23;;;4.80;;
71806;SDS011;59655;42.590;23.364;2023-01-29T03:00:27;11.00;;;4.93;;
71806;SDS011;59655;42.590;23.364;2023-01-29T03:02:59;10.88;;;4.78;;
71806;SDS011;59655;42.590;23.364;2023-01-29T03:05:31;10.25;;;4.30;;
71806;SDS011;59655;42.590;23.364;2023-01-29T03:08:07;10.00;;;4.53;;
71806;SDS011;59655;42.590;23.364;2023-01-29T03:10:54;10.15;;;5.00;;
71806;SDS011;59655;42.590;23.364;2023-01-29T03:15:57;7.68;;;3.88;;
71806;SDS011;59655;42.590;23.364;2023-01-29T03:18:27;7.55;;;3.78;;
71806;SDS011;59655;42.590;23.364;2023-01-29T03:21:01;7.70;;;3.78;;
71806;SDS011;59655;42.590;23.364;2023-01-29T03:23:51;7.80;;;3.97;;
71806;SDS011;59655;42.590;23.364;2023-01-29T03:26:37;7.03;;;3.53;;
71806;SDS011;59655;42.590;23.364;2023-01-29T03:29:23;7.97;;;3.00;;
71806;SDS011;59655;42.590;23.364;2023-01-29T03:32:07;7.07;;;3.13;;
71806;SDS011;59655;42.590;23.364;2023-01-29T03:34:39;5.28;;;2.63;;
71806;SDS011;59655;42.590;23.364;2023-01-29T03:37:10;5.00;;;2.65;;
71806;SDS011;59655;42.590;23.364;2023-01-29T03:39:44;5.20;;;2.60;;
71806;SDS011;59655;42.590;23.364;2023-01-29T03:47:38;4.10;;;2.10;;
71806;SDS011;59655;42.590;23.364;2023-01-29T03:51:13;5.25;;;2.33;;
71806;SDS011;59655;42.590;23.364;2023-01-29T03:53:24;3.30;;;1.83;;
71806;SDS011;59655;42.590;23.364;2023-01-29T03:55:59;4.13;;;2.03;;
71806;SDS011;59655;42.590;23.364;2023-01-29T03:58:57;4.82;;;2.00;;
71806;SDS011;59655;42.590;23.364;2023-01-29T04:01:31;4.38;;;2.22;;
71806;SDS011;59655;42.590;23.364;2023-01-29T04:04:22;4.32;;;2.00;;
71806;SDS011;59655;42.590;23.364;2023-01-29T04:06:50;4.60;;;1.98;;
71806;SDS011;59655;42.590;23.364;2023-01-29T04:09:23;4.20;;;1.90;;
71806;SDS011;59655;42.590;23.364;2023-01-29T04:11:58;4.57;;;1.98;;
71806;SDS011;59655;42.590;23.364;2023-01-29T04:14:28;4.45;;;2.05;;
71806;SDS011;59655;42.590;23.364;2023-01-29T04:16:56;4.65;;;1.70;;
71806;SDS011;59655;42.590;23.364;2023-01-29T04:19:27;5.70;;;2.15;;
71806;SDS011;59655;42.590;23.364;2023-01-29T04:21:57;3.50;;;1.85;;
71806;SDS011;59655;42.590;23.364;2023-01-29T04:24:29;4.93;;;2.08;;
71806;SDS011;59655;42.590;23.364;2023-01-29T04:41:06;3.92;;;2.03;;
71806;SDS011;59655;42.590;23.364;2023-01-29T04:46:26;4.53;;;1.75;;
71806;SDS011;59655;42.590;23.364;2023-01-29T04:51:42;4.43;;;2.10;;
71806;SDS011;59655;42.590;23.364;2023-01-29T04:54:22;4.03;;;2.17;;
71806;SDS011;59655;42.590;23.364;2023-01-29T04:59:54;4.22;;;1.80;;
71806;SDS011;59655;42.590;23.364;2023-01-29T05:02:28;3.75;;;1.80;;
71806;SDS011;59655;42.590;23.364;2023-01-29T05:04:58;3.85;;;1.90;;
71806;SDS011;59655;42.590;23.364;2023-01-29T05:07:24;3.55;;;1.88;;
71806;SDS011;59655;42.590;23.364;2023-01-29T05:09:52;4.57;;;2.30;;
71806;SDS011;59655;42.590;23.364;2023-01-29T05:12:18;3.90;;;2.00;;
71806;SDS011;59655;42.590;23.364;2023-01-29T05:14:44;4.75;;;2.28;;
71806;SDS011;59655;42.590;23.364;2023-01-29T05:17:13;4.93;;;2.25;;
71806;SDS011;59655;42.590;23.364;2023-01-29T05:19:40;4.30;;;2.05;;
71806;SDS011;59655;42.590;23.364;2023-01-29T05:22:07;4.20;;;2.28;;
71806;SDS011;59655;42.590;23.364;2023-01-29T05:27:01;4.35;;;2.33;;
71806;SDS011;59655;42.590;23.364;2023-01-29T05:29:45;4.57;;;2.40;;
71806;SDS011;59655;42.590;23.364;2023-01-29T05:32:11;5.43;;;3.00;;
71806;SDS011;59655;42.590;23.364;2023-01-29T05:34:37;5.15;;;2.63;;
71806;SDS011;59655;42.590;23.364;2023-01-29T05:37:03;7.40;;;3.17;;
71806;SDS011;59655;42.590;23.364;2023-01-29T05:39:28;6.20;;;2.97;;
71806;SDS011;59655;42.590;23.364;2023-01-29T05:41:54;7.50;;;3.35;;
71806;SDS011;59655;42.590;23.364;2023-01-29T05:44:19;7.13;;;2.92;;
71806;SDS011;59655;42.590;23.364;2023-01-29T05:46:44;4.90;;;2.45;;
71806;SDS011;59655;42.590;23.364;2023-01-29T05:49:10;6.90;;;3.00;;
71806;SDS011;59655;42.590;23.364;2023-01-29T05:51:36;6.65;;;2.70;;
71806;SDS011;59655;42.590;23.364;2023-01-29T05:54:02;4.82;;;2.58;;
71806;SDS011;59655;42.590;23.364;2023-01-29T05:56:27;4.50;;;2.60;;
71806;SDS011;59655;42.590;23.364;2023-01-29T05:58:53;5.25;;;2.60;;
71806;SDS011;59655;42.590;23.364;2023-01-29T06:01:20;5.53;;;2.83;;
71806;SDS011;59655;42.590;23.364;2023-01-29T06:03:47;6.20;;;2.97;;
71806;SDS011;59655;42.590;23.364;2023-01-29T06:06:13;5.57;;;2.60;;
71806;SDS011;59655;42.590;23.364;2023-01-29T06:08:39;5.70;;;2.92;;
71806;SDS011;59655;42.590;23.364;2023-01-29T06:11:09;5.15;;;2.80;;
71806;SDS011;59655;42.590;23.364;2023-01-29T06:13:35;5.95;;;3.00;;
71806;SDS011;59655;42.590;23.364;2023-01-29T06:16:03;7.35;;;4.05;;
71806;SDS011;59655;42.590;23.364;2023-01-29T06:18:32;8.93;;;3.88;;
71806;SDS011;59655;42.590;23.364;2023-01-29T06:21:01;6.53;;;3.17;;
71806;SDS011;59655;42.590;23.364;2023-01-29T06:23:28;8.93;;;4.00;;
71806;SDS011;59655;42.590;23.364;2023-01-29T06:25:58;6.10;;;3.50;;
71806;SDS011;59655;42.590;23.364;2023-01-29T06:28:27;6.93;;;3.70;;
71806;SDS011;59655;42.590;23.364;2023-01-29T06:30:55;6.68;;;3.22;;
71806;SDS011;59655;42.590;23.364;2023-01-29T06:33:22;6.28;;;3.35;;
71806;SDS011;59655;42.590;23.364;2023-01-29T06:35:48;6.57;;;4.07;;
71806;SDS011;59655;42.590;23.364;2023-01-29T06:38:19;8.13;;;4.10;;
71806;SDS011;59655;42.590;23.364;2023-01-29T06:40:44;7.35;;;3.97;;
71806;SDS011;59655;42.590;23.364;2023-01-29T06:43:10;7.57;;;4.47;;
71806;SDS011;59655;42.590;23.364;2023-01-29T06:45:35;8.13;;;3.90;;
71806;SDS011;59655;42.590;23.364;2023-01-29T06:48:00;7.90;;;3.97;;
71806;SDS011;59655;42.590;23.364;2023-01-29T06:50:26;8.63;;;3.63;;
71806;SDS011;59655;42.590;23.364;2023-01-29T06:52:51;8.00;;;3.92;;
71806;SDS011;59655;42.590;23.364;2023-01-29T06:55:17;7.75;;;4.10;;
71806;SDS011;59655;42.590;23.364;2023-01-29T06:57:42;8.73;;;5.03;;
71806;SDS011;59655;42.590;23.364;2023-01-29T07:00:08;9.82;;;4.13;;
71806;SDS011;59655;42.590;23.364;2023-01-29T07:02:34;8.82;;;4.10;;
71806;SDS011;59655;42.590;23.364;2023-01-29T07:05:00;7.55;;;4.05;;
71806;SDS011;59655;42.590;23.364;2023-01-29T07:07:26;7.93;;;3.92;;
71806;SDS011;59655;42.590;23.364;2023-01-29T07:09:51;10.50;;;4.70;;
71806;SDS011;59655;42.590;23.364;2023-01-29T07:12:16;7.95;;;4.07;;
71806;SDS011;59655;42.590;23.364;2023-01-29T07:14:42;8.40;;;3.92;;
71806;SDS011;59655;42.590;23.364;2023-01-29T07:17:07;8.50;;;4.45;;
71806;SDS011;59655;42.590;23.364;2023-01-29T07:19:33;8.27;;;4.13;;
71806;SDS011;59655;42.590;23.364;2023-01-29T07:21:58;7.95;;;4.40;;
71806;SDS011;59655;42.590;23.364;2023-01-29T07:24:26;7.80;;;4.28;;
71806;SDS011;59655;42.590;23.364;2023-01-29T07:26:51;8.77;;;5.03;;
71806;SDS011;59655;42.590;23.364;2023-01-29T07:29:17;12.30;;;4.97;;
71806;SDS011;59655;42.590;23.364;2023-01-29T07:31:43;9.63;;;4.60;;
71806;SDS011;59655;42.590;23.364;2023-01-29T07:34:10;7.90;;;4.03;;
71806;SDS011;59655;42.590;23.364;2023-01-29T07:36:36;10.30;;;5.28;;
71806;SDS011;59655;42.590;23.364;2023-01-29T07:39:01;8.35;;;4.45;;
71806;SDS011;59655;42.590;23.364;2023-01-29T07:41:27;7.85;;;3.90;;
71806;SDS011;59655;42.590;23.364;2023-01-29T07:43:52;6.65;;;4.18;;
71806;SDS011;59655;42.590;23.364;2023-01-29T07:46:18;14.57;;;5.13;;
71806;SDS011;59655;42.590;23.364;2023-01-29T07:48:44;9.00;;;5.15;;
71806;SDS011;59655;42.590;23.364;2023-01-29T07:51:10;10.63;;;5.38;;
71806;SDS011;59655;42.590;23.364;2023-01-29T07:53:35;12.10;;;5.45;;
71806;SDS011;59655;42.590;23.364;2023-01-29T07:56:01;10.55;;;4.93;;
71806;SDS011;59655;42.590;23.364;2023-01-29T07:58:29;9.65;;;5.13;;
71806;SDS011;59655;42.590;23.364;2023-01-29T08:00:55;15.25;;;6.78;;
71806;SDS011;59655;42.590;23.364;2023-01-29T08:03:22;10.48;;;5.65;;
71806;SDS011;59655;42.590;23.364;2023-01-29T08:05:49;10.25;;;5.35;;
71806;SDS011;59655;42.590;23.364;2023-01-29T08:08:16;10.15;;;5.00;;
71806;SDS011;59655;42.590;23.364;2023-01-29T08:10:44;9.23;;;4.75;;
71806;SDS011;59655;42.590;23.364;2023-01-29T08:13:11;8.88;;;4.72;;
71806;SDS011;59655;42.590;23.364;2023-01-29T08:15:36;10.57;;;5.15;;
71806;SDS011;59655;42.590;23.364;2023-01-29T08:18:02;9.63;;;5.22;;
71806;SDS011;59655;42.590;23.364;2023-01-29T08:20:28;9.68;;;5.25;;
71806;SDS011;59655;42.590;23.364;2023-01-29T08:23:01;10.48;;;5.47;;
71806;SDS011;59655;42.590;23.364;2023-01-29T08:25:32;9.93;;;5.07;;
71806;SDS011;59655;42.590;23.364;2023-01-29T08:27:58;9.25;;;5.18;;
71806;SDS011;59655;42.590;23.364;2023-01-29T08:30:25;8.88;;;4.85;;
71806;SDS011;59655;42.590;23.364;2023-01-29T08:32:52;10.57;;;5.50;;
71806;SDS011;59655;42.590;23.364;2023-01-29T08:35:19;11.18;;;5.40;;
71806;SDS011;59655;42.590;23.364;2023-01-29T08:37:51;9.43;;;5.28;;
71806;SDS011;59655;42.590;23.364;2023-01-29T08:40:27;9.55;;;5.38;;
71806;SDS011;59655;42.590;23.364;2023-01-29T08:42:59;11.07;;;5.75;;
71806;SDS011;59655;42.590;23.364;2023-01-29T08:45:26;10.77;;;5.68;;
71806;SDS011;59655;42.590;23.364;2023-01-29T08:47:51;13.48;;;5.82;;
71806;SDS011;59655;42.590;23.364;2023-01-29T08:50:17;11.68;;;6.38;;
71806;SDS011;59655;42.590;23.364;2023-01-29T08:52:42;12.85;;;5.97;;
71806;SDS011;59655;42.590;23.364;2023-01-29T08:55:09;10.32;;;5.63;;
71806;SDS011;59655;42.590;23.364;2023-01-29T08:57:35;10.10;;;5.50;;
71806;SDS011;59655;42.590;23.364;2023-01-29T09:00:04;12.23;;;6.13;;
71806;SDS011;59655;42.590;23.364;2023-01-29T09:02:31;13.00;;;6.40;;
71806;SDS011;59655;42.590;23.364;2023-01-29T09:04:57;12.45;;;6.10;;
71806;SDS011;59655;42.590;23.364;2023-01-29T09:07:23;12.55;;;6.70;;
71806;SDS011;59655;42.590;23.364;2023-01-29T09:09:48;11.02;;;6.13;;
71806;SDS011;59655;42.590;23.364;2023-01-29T09:12:15;10.55;;;6.15;;
71806;SDS011;59655;42.590;23.364;2023-01-29T09:14:42;12.77;;;6.00;;
71806;SDS011;59655;42.590;23.364;2023-01-29T09:17:08;12.20;;;6.40;;
71806;SDS011;59655;42.590;23.364;2023-01-29T09:19:34;11.93;;;6.45;;
71806;SDS011;59655;42.590;23.364;2023-01-29T09:21:59;14.90;;;7.45;;
71806;SDS011;59655;42.590;23.364;2023-01-29T09:24:25;13.93;;;6.60;;
71806;SDS011;59655;42.590;23.364;2023-01-29T09:26:50;14.60;;;7.22;;
71806;SDS011;59655;42.590;23.364;2023-01-29T09:29:15;12.50;;;6.68;;
71806;SDS011;59655;42.590;23.364;2023-01-29T09:31:41;14.73;;;7.05;;
71806;SDS011;59655;42.590;23.364;2023-01-29T09:34:06;16.00;;;7.30;;
71806;SDS011;59655;42.590;23.364;2023-01-29T09:36:31;19.10;;;8.27;;
71806;SDS011;59655;42.590;23.364;2023-01-29T09:38:57;14.48;;;8.20;;
71806;SDS011;59655;42.590;23.364;2023-01-29T09:44:15;16.33;;;7.80;;
71806;SDS011;59655;42.590;23.364;2023-01-29T09:47:03;16.20;;;8.27;;
71806;SDS011;59655;42.590;23.364;2023-01-29T09:49:35;16.27;;;8.07;;
71806;SDS011;59655;42.590;23.364;2023-01-29T09:52:29;14.43;;;7.25;;
71806;SDS011;59655;42.590;23.364;2023-01-29T10:00:19;16.70;;;8.38;;
71806;SDS011;59655;42.590;23.364;2023-01-29T10:03:13;21.25;;;8.85;;
71806;SDS011;59655;42.590;23.364;2023-01-29T10:08:44;16.33;;;8.30;;
71806;SDS011;59655;42.590;23.364;2023-01-29T10:24:56;19.00;;;8.75;;
71806;SDS011;59655;42.590;23.364;2023-01-29T10:27:40;16.88;;;8.77;;
71806;SDS011;59655;42.590;23.364;2023-01-29T10:33:01;17.27;;;8.73;;
71806;SDS011;59655;42.590;23.364;2023-01-29T10:35:32;20.17;;;9.45;;
71806;SDS011;59655;42.590;23.364;2023-01-29T10:46:48;17.80;;;9.10;;
71806;SDS011;59655;42.590;23.364;2023-01-29T10:55:04;18.08;;;9.43;;
71806;SDS011;59655;42.590;23.364;2023-01-29T10:58:06;17.02;;;9.30;;
71806;SDS011;59655;42.590;23.364;2023-01-29T11:00:49;18.13;;;9.23;;
71806;SDS011;59655;42.590;23.364;2023-01-29T11:03:24;19.35;;;10.20;;
71806;SDS011;59655;42.590;23.364;2023-01-29T11:06:03;19.08;;;9.38;;
71806;SDS011;59655;42.590;23.364;2023-01-29T11:11:46;23.02;;;10.00;;
71806;SDS011;59655;42.590;23.364;2023-01-29T11:14:24;21.15;;;10.32;;
71806;SDS011;59655;42.590;23.364;2023-01-29T11:17:24;22.25;;;10.48;;
71806;SDS011;59655;42.590;23.364;2023-01-29T11:19:51;21.17;;;10.50;;
71806;SDS011;59655;42.590;23.364;2023-01-29T11:22:23;20.35;;;10.27;;
71806;SDS011;59655;42.590;23.364;2023-01-29T11:25:06;23.35;;;10.50;;
71806;SDS011;59655;42.590;23.364;2023-01-29T11:27:53;24.92;;;11.13;;
71806;SDS011;59655;42.590;23.364;2023-01-29T11:30:32;24.45;;;11.05;;
71806;SDS011;59655;42.590;23.364;2023-01-29T11:33:20;22.70;;;11.20;;
71806;SDS011;59655;42.590;23.364;2023-01-29T11:35:49;21.33;;;10.57;;
71806;SDS011;59655;42.590;23.364;2023-01-29T11:41:03;19.45;;;10.10;;
71806;SDS011;59655;42.590;23.364;2023-01-29T11:43:31;20.98;;;10.38;;
71806;SDS011;59655;42.590;23.364;2023-01-29T11:45:58;23.10;;;11.27;;
71806;SDS011;59655;42.590;23.364;2023-01-29T11:48:50;20.60;;;10.20;;
71806;SDS011;59655;42.590;23.364;2023-01-29T11:51:25;26.10;;;10.85;;
71806;SDS011;59655;42.590;23.364;2023-01-29T11:53:53;24.55;;;10.90;;
71806;SDS011;59655;42.590;23.364;2023-01-29T11:56:33;25.83;;;10.90;;
71806;SDS011;59655;42.590;23.364;2023-01-29T11:59:04;22.88;;;10.43;;
71806;SDS011;59655;42.590;23.364;2023-01-29T12:01:34;23.35;;;11.13;;
71806;SDS011;59655;42.590;23.364;2023-01-29T12:04:03;21.67;;;10.75;;
71806;SDS011;59655;42.590;23.364;2023-01-29T12:06:42;24.63;;;11.00;;
71806;SDS011;59655;42.590;23.364;2023-01-29T12:09:18;22.63;;;10.38;;
71806;SDS011;59655;42.590;23.364;2023-01-29T12:11:47;25.05;;;10.48;;
71806;SDS011;59655;42.590;23.364;2023-01-29T12:17:12;22.67;;;10.20;;
71806;SDS011;59655;42.590;23.364;2023-01-29T12:19:56;19.90;;;9.45;;
71806;SDS011;59655;42.590;23.364;2023-01-29T12:22:49;21.73;;;11.18;;
71806;SDS011;59655;42.590;23.364;2023-01-29T12:28:21;21.27;;;9.95;;
71806;SDS011;59655;42.590;23.364;2023-01-29T12:38:23;21.90;;;10.02;;
71806;SDS011;59655;42.590;23.364;2023-01-29T12:39:37;25.65;;;10.88;;
71806;SDS011;59655;42.590;23.364;2023-01-29T12:42:11;27.10;;;10.93;;
71806;SDS011;59655;42.590;23.364;2023-01-29T12:44:46;27.20;;;12.18;;
71806;SDS011;59655;42.590;23.364;2023-01-29T12:47:33;24.83;;;11.35;;
71806;SDS011;59655;42.590;23.364;2023-01-29T12:50:22;24.83;;;11.10;;
71806;SDS011;59655;42.590;23.364;2023-01-29T12:56:31;24.45;;;11.18;;
71806;SDS011;59655;42.590;23.364;2023-01-29T12:59:25;24.85;;;11.32;;
71806;SDS011;59655;42.590;23.364;2023-01-29T13:04:54;29.00;;;11.88;;
71806;SDS011;59655;42.590;23.364;2023-01-29T13:07:35;27.92;;;12.57;;
71806;SDS011;59655;42.590;23.364;2023-01-29T13:10:09;27.25;;;11.55;;
71806;SDS011;59655;42.590;23.364;2023-01-29T13:12:42;27.23;;;12.07;;
71806;SDS011;59655;42.590;23.364;2023-01-29T13:15:21;27.08;;;11.88;;
71806;SDS011;59655;42.590;23.364;2023-01-29T13:18:06;27.80;;;12.10;;
71806;SDS011;59655;42.590;23.364;2023-01-29T13:21:10;26.88;;;10.77;;
71806;SDS011;59655;42.590;23.364;2023-01-29T13:26:45;26.40;;;11.35;;
71806;SDS011;59655;42.590;23.364;2023-01-29T13:29:27;29.08;;;12.60;;
71806;SDS011;59655;42.590;23.364;2023-01-29T13:32:29;26.25;;;12.00;;
71806;SDS011;59655;42.590;23.364;2023-01-29T13:35:05;27.77;;;12.32;;
71806;SDS011;59655;42.590;23.364;2023-01-29T13:37:46;27.55;;;12.95;;
71806;SDS011;59655;42.590;23.364;2023-01-29T13:42:53;24.83;;;10.93;;
71806;SDS011;59655;42.590;23.364;2023-01-29T13:45:20;23.27;;;11.20;;
71806;SDS011;59655;42.590;23.364;2023-01-29T13:48:07;25.25;;;11.52;;
71806;SDS011;59655;42.590;23.364;2023-01-29T13:50:45;23.13;;;11.75;;
71806;SDS011;59655;42.590;23.364;2023-01-29T13:53:36;25.95;;;12.43;;
71806;SDS011;59655;42.590;23.364;2023-01-29T13:59:17;26.73;;;11.93;;
71806;SDS011;59655;42.590;23.364;2023-01-29T14:04:22;24.85;;;10.75;;
71806;SDS011;59655;42.590;23.364;2023-01-29T14:06:55;20.63;;;10.05;;
71806;SDS011;59655;42.590;23.364;2023-01-29T14:12:54;21.45;;;10.57;;
71806;SDS011;59655;42.590;23.364;2023-01-29T14:18:28;23.15;;;10.68;;
71806;SDS011;59655;42.590;23.364;2023-01-29T14:21:23;24.75;;;11.82;;
71806;SDS011;59655;42.590;23.364;2023-01-29T14:23:57;27.80;;;11.32;;
71806;SDS011;59655;42.590;23.364;2023-01-29T14:26:32;25.55;;;11.32;;
71806;SDS011;59655;42.590;23.364;2023-01-29T14:31:52;25.63;;;11.93;;
71806;SDS011;59655;42.590;23.364;2023-01-29T14:42:17;26.98;;;11.18;;
71806;SDS011;59655;42.590;23.364;2023-01-29T14:52:52;29.38;;;13.50;;
71806;SDS011;59655;42.590;23.364;2023-01-29T14:55:36;33.17;;;13.63;;
71806;SDS011;59655;42.590;23.364;2023-01-29T14:58:04;28.30;;;13.68;;
71806;SDS011;59655;42.590;23.364;2023-01-29T15:00:36;33.70;;;14.68;;
71806;SDS011;59655;42.590;23.364;2023-01-29T15:03:03;35.03;;;15.40;;
71806;SDS011;59655;42.590;23.364;2023-01-29T15:05:36;37.40;;;16.02;;
71806;SDS011;59655;42.590;23.364;2023-01-29T15:13:21;29.58;;;13.65;;
71806;SDS011;59655;42.590;23.364;2023-01-29T15:16:05;33.67;;;14.60;;
71806;SDS011;59655;42.590;23.364;2023-01-29T15:18:39;32.97;;;14.57;;
71806;SDS011;59655;42.590;23.364;2023-01-29T15:23:38;33.72;;;14.35;;
71806;SDS011;59655;42.590;23.364;2023-01-29T15:26:05;35.10;;;15.80;;
71806;SDS011;59655;42.590;23.364;2023-01-29T15:28:33;31.20;;;14.07;;
71806;SDS011;59655;42.590;23.364;2023-01-29T15:31:00;29.30;;;13.23;;
71806;SDS011;59655;42.590;23.364;2023-01-29T15:35:55;26.92;;;12.32;;
71806;SDS011;59655;42.590;23.364;2023-01-29T15:40:58;28.02;;;11.40;;
71806;SDS011;59655;42.590;23.364;2023-01-29T15:46:04;25.55;;;11.93;;
71806;SDS011;59655;42.590;23.364;2023-01-29T15:48:47;28.90;;;12.40;;
71806;SDS011;59655;42.590;23.364;2023-01-29T15:51:21;26.98;;;12.82;;
71806;SDS011;59655;42.590;23.364;2023-01-29T15:53:52;27.92;;;12.60;;
71806;SDS011;59655;42.590;23.364;2023-01-29T15:56:24;27.77;;;12.55;;
71806;SDS011;59655;42.590;23.364;2023-01-29T15:58:53;29.77;;;13.43;;
71806;SDS011;59655;42.590;23.364;2023-01-29T16:01:20;29.35;;;14.15;;
71806;SDS011;59655;42.590;23.364;2023-01-29T16:03:49;25.20;;;12.45;;
71806;SDS011;59655;42.590;23.364;2023-01-29T16:06:16;28.10;;;12.55;;
71806;SDS011;59655;42.590;23.364;2023-01-29T16:08:44;26.17;;;12.77;;
71806;SDS011;59655;42.590;23.364;2023-01-29T16:11:13;33.85;;;14.38;;
71806;SDS011;59655;42.590;23.364;2023-01-29T16:13:41;25.55;;;13.07;;
71806;SDS011;59655;42.590;23.364;2023-01-29T16:18:41;36.65;;;15.45;;
71806;SDS011;59655;42.590;23.364;2023-01-29T16:21:09;34.50;;;14.45;;
71806;SDS011;59655;42.590;23.364;2023-01-29T16:23:41;38.67;;;17.80;;
71806;SDS011;59655;42.590;23.364;2023-01-29T16:26:11;34.90;;;15.23;;
71806;SDS011;59655;42.590;23.364;2023-01-29T16:28:42;42.53;;;19.17;;
71806;SDS011;59655;42.590;23.364;2023-01-29T16:31:09;34.92;;;16.42;;
71806;SDS011;59655;42.590;23.364;2023-01-29T16:33:39;41.80;;;18.52;;
71806;SDS011;59655;42.590;23.364;2023-01-29T16:36:15;41.28;;;16.92;;
71806;SDS011;59655;42.590;23.364;2023-01-29T16:38:44;41.60;;;18.33;;
71806;SDS011;59655;42.590;23.364;2023-01-29T16:41:15;74.90;;;28.15;;
71806;SDS011;59655;42.590;23.364;2023-01-29T16:43:53;72.20;;;30.75;;
71806;SDS011;59655;42.590;23.364;2023-01-29T16:46:25;59.95;;;27.35;;
71806;SDS011;59655;42.590;23.364;2023-01-29T16:49:01;107.78;;;46.08;;
71806;SDS011;59655;42.590;23.364;2023-01-29T16:51:49;126.78;;;51.67;;
71806;SDS011;59655;42.590;23.364;2023-01-29T16:54:14;112.93;;;46.15;;
71806;SDS011;59655;42.590;23.364;2023-01-29T16:56:43;82.88;;;38.70;;
71806;SDS011;59655;42.590;23.364;2023-01-29T16:59:14;476.73;;;232.32;;
71806;SDS011;59655;42.590;23.364;2023-01-29T17:01:43;261.13;;;103.80;;
71806;SDS011;59655;42.590;23.364;2023-01-29T17:04:09;139.98;;;53.83;;
71806;SDS011;59655;42.590;23.364;2023-01-29T17:06:39;46.88;;;20.15;;
71806;SDS011;59655;42.590;23.364;2023-01-29T17:09:15;40.63;;;17.83;;
71806;SDS011;59655;42.590;23.364;2023-01-29T17:11:45;164.27;;;67.28;;
71806;SDS011;59655;42.590;23.364;2023-01-29T17:14:16;165.20;;;65.90;;
71806;SDS011;59655;42.590;23.364;2023-01-29T17:16:53;102.05;;;39.53;;
71806;SDS011;59655;42.590;23.364;2023-01-29T17:19:22;81.57;;;31.83;;
71806;SDS011;59655;42.590;23.364;2023-01-29T17:24:14;89.33;;;32.97;;
71806;SDS011;59655;42.590;23.364;2023-01-29T17:26:40;86.85;;;33.58;;
71806;SDS011;59655;42.590;23.364;2023-01-29T17:29:08;88.60;;;37.88;;
71806;SDS011;59655;42.590;23.364;2023-01-29T17:31:37;82.22;;;35.17;;
71806;SDS011;59655;42.590;23.364;2023-01-29T17:34:07;67.57;;;30.27;;
71806;SDS011;59655;42.590;23.364;2023-01-29T17:36:34;73.47;;;30.77;;
71806;SDS011;59655;42.590;23.364;2023-01-29T17:39:00;78.78;;;32.92;;
71806;SDS011;59655;42.590;23.364;2023-01-29T17:41:26;75.82;;;33.40;;
71806;SDS011;59655;42.590;23.364;2023-01-29T17:43:54;75.07;;;31.75;;
71806;SDS011;59655;42.590;23.364;2023-01-29T17:46:19;73.90;;;32.92;;